sensor_id;sensor_type;location;lat;lon;timestamp;P1;durP1;ratioP1;P2;durP2;ratioP2
21741;SDS011;11033;47.490;11.116;2023-02-28T00:00:08;32.63;;;21.00;;
21741;SDS011;11033;47.490;11.116;2023-02-28T00:02:39;30.65;;;20.17;;
21741;SDS011;11033;47.490;11.116;2023-02-28T00:05:08;29.60;;;20.65;;
21741;SDS011;11033;47.490;11.116;2023-02-28T00:07:35;33.75;;;21.38;;
21741;SDS011;11033;47.490;11.116;2023-02-28T00:10:00;31.08;;;20.98;;
21741;SDS011;11033;47.490;11.116;2023-02-28T00:12:26;29.45;;;19.67;;
21741;SDS011;11033;47.490;11.116;2023-02-28T00:14:52;32.72;;;21.25;;
21741;SDS011;11033;47.490;11.116;2023-02-28T00:17:17;37.45;;;22.30;;
21741;SDS011;11033;47.490;11.116;2023-02-28T00:19:46;33.08;;;20.45;;
21741;SDS011;11033;47.490;11.116;2023-02-28T00:22:12;38.55;;;22.05;;
21741;SDS011;11033;47.490;11.116;2023-02-28T00:24:37;31.67;;;21.70;;
21741;SDS011;11033;47.490;11.116;2023-02-28T00:27:03;36.67;;;22.17;;
21741;SDS011;11033;47.490;11.116;2023-02-28T00:29:28;36.43;;;23.20;;
21741;SDS011;11033;47.490;11.116;2023-02-28T00:31:53;31.00;;;21.37;;
21741;SDS011;11033;47.490;11.116;2023-02-28T00:34:18;35.20;;;22.83;;
21741;SDS011;11033;47.490;11.116;2023-02-28T00:36:43;34.80;;;23.00;;
21741;SDS011;11033;47.490;11.116;2023-02-28T00:39:11;34.60;;;20.55;;
21741;SDS011;11033;47.490;11.116;2023-02-28T00:41:36;35.72;;;20.50;;
21741;SDS011;11033;47.490;11.116;2023-02-28T00:44:02;30.75;;;20.27;;
21741;SDS011;11033;47.490;11.116;2023-02-28T00:46:27;33.47;;;20.58;;
21741;SDS011;11033;47.490;11.116;2023-02-28T00:48:52;27.60;;;19.53;;
21741;SDS011;11033;47.490;11.116;2023-02-28T00:51:17;34.70;;;19.33;;
21741;SDS011;11033;47.490;11.116;2023-02-28T00:53:43;28.83;;;19.42;;
21741;SDS011;11033;47.490;11.116;2023-02-28T00:56:08;29.03;;;18.90;;
21741;SDS011;11033;47.490;11.116;2023-02-28T00:58:33;34.33;;;22.07;;
21741;SDS011;11033;47.490;11.116;2023-02-28T01:00:58;30.08;;;19.42;;
21741;SDS011;11033;47.490;11.116;2023-02-28T01:03:24;34.10;;;20.53;;
21741;SDS011;11033;47.490;11.116;2023-02-28T01:05:49;32.33;;;19.08;;
21741;SDS011;11033;47.490;11.116;2023-02-28T01:08:15;29.63;;;19.40;;
21741;SDS011;11033;47.490;11.116;2023-02-28T01:10:40;34.00;;;21.23;;
21741;SDS011;11033;47.490;11.116;2023-02-28T01:13:06;37.30;;;21.13;;
21741;SDS011;11033;47.490;11.116;2023-02-28T01:15:31;35.13;;;21.80;;
21741;SDS011;11033;47.490;11.116;2023-02-28T01:17:57;33.65;;;20.90;;
21741;SDS011;11033;47.490;11.116;2023-02-28T01:20:23;32.25;;;20.60;;
21741;SDS011;11033;47.490;11.116;2023-02-28T01:22:48;31.58;;;20.45;;
21741;SDS011;11033;47.490;11.116;2023-02-28T01:25:15;35.10;;;23.23;;
21741;SDS011;11033;47.490;11.116;2023-02-28T01:27:40;33.30;;;20.90;;
21741;SDS011;11033;47.490;11.116;2023-02-28T01:30:06;31.33;;;21.77;;
21741;SDS011;11033;47.490;11.116;2023-02-28T01:32:33;33.42;;;21.63;;
21741;SDS011;11033;47.490;11.116;2023-02-28T01:34:59;31.08;;;19.73;;
21741;SDS011;11033;47.490;11.116;2023-02-28T01:37:24;34.07;;;19.90;;
21741;SDS011;11033;47.490;11.116;2023-02-28T01:39:49;35.80;;;21.77;;
21741;SDS011;11033;47.490;11.116;2023-02-28T01:42:14;35.42;;;21.83;;
21741;SDS011;11033;47.490;11.116;2023-02-28T01:47:42;38.28;;;21.40;;
21741;SDS011;11033;47.490;11.116;2023-02-28T01:50:13;43.22;;;25.63;;
21741;SDS011;11033;47.490;11.116;2023-02-28T01:52:41;37.15;;;22.55;;
21741;SDS011;11033;47.490;11.116;2023-02-28T01:55:08;42.20;;;23.10;;
21741;SDS011;11033;47.490;11.116;2023-02-28T01:57:45;41.03;;;23.25;;
21741;SDS011;11033;47.490;11.116;2023-02-28T02:00:14;43.70;;;24.77;;
21741;SDS011;11033;47.490;11.116;2023-02-28T02:02:42;40.83;;;24.52;;
21741;SDS011;11033;47.490;11.116;2023-02-28T02:05:11;39.70;;;23.90;;
21741;SDS011;11033;47.490;11.116;2023-02-28T02:07:39;44.33;;;25.02;;
21741;SDS011;11033;47.490;11.116;2023-02-28T02:17:56;37.58;;;21.58;;
21741;SDS011;11033;47.490;11.116;2023-02-28T02:26:05;40.35;;;22.20;;
21741;SDS011;11033;47.490;11.116;2023-02-28T02:31:33;37.25;;;23.27;;
21741;SDS011;11033;47.490;11.116;2023-02-28T02:34:23;33.58;;;20.73;;
21741;SDS011;11033;47.490;11.116;2023-02-28T02:37:02;40.65;;;23.83;;
21741;SDS011;11033;47.490;11.116;2023-02-28T02:42:29;31.58;;;20.23;;
21741;SDS011;11033;47.490;11.116;2023-02-28T02:45:03;38.80;;;21.10;;
21741;SDS011;11033;47.490;11.116;2023-02-28T02:47:34;34.20;;;21.27;;
21741;SDS011;11033;47.490;11.116;2023-02-28T02:50:02;30.52;;;19.58;;
21741;SDS011;11033;47.490;11.116;2023-02-28T02:52:33;38.03;;;22.10;;
21741;SDS011;11033;47.490;11.116;2023-02-28T02:55:05;33.75;;;20.55;;
21741;SDS011;11033;47.490;11.116;2023-02-28T02:57:37;37.78;;;21.67;;
21741;SDS011;11033;47.490;11.116;2023-02-28T03:00:10;30.45;;;19.23;;
21741;SDS011;11033;47.490;11.116;2023-02-28T03:02:37;34.88;;;21.45;;
21741;SDS011;11033;47.490;11.116;2023-02-28T03:05:07;34.20;;;20.33;;
21741;SDS011;11033;47.490;11.116;2023-02-28T03:07:39;36.63;;;21.40;;
21741;SDS011;11033;47.490;11.116;2023-02-28T03:10:25;34.65;;;21.27;;
21741;SDS011;11033;47.490;11.116;2023-02-28T03:13:03;32.65;;;20.95;;
21741;SDS011;11033;47.490;11.116;2023-02-28T03:15:58;33.67;;;19.80;;
21741;SDS011;11033;47.490;11.116;2023-02-28T03:21:12;30.77;;;19.92;;
21741;SDS011;11033;47.490;11.116;2023-02-28T03:23:45;29.67;;;18.63;;
21741;SDS011;11033;47.490;11.116;2023-02-28T03:26:19;36.30;;;21.77;;
21741;SDS011;11033;47.490;11.116;2023-02-28T03:34:21;34.08;;;19.77;;
21741;SDS011;11033;47.490;11.116;2023-02-28T03:36:55;31.88;;;18.65;;
21741;SDS011;11033;47.490;11.116;2023-02-28T03:39:28;31.65;;;18.08;;
21741;SDS011;11033;47.490;11.116;2023-02-28T03:42:09;31.00;;;18.23;;
21741;SDS011;11033;47.490;11.116;2023-02-28T03:44:40;32.72;;;18.52;;
21741;SDS011;11033;47.490;11.116;2023-02-28T03:47:17;34.63;;;19.13;;
21741;SDS011;11033;47.490;11.116;2023-02-28T03:50:01;27.75;;;17.20;;
21741;SDS011;11033;47.490;11.116;2023-02-28T03:52:35;24.77;;;15.33;;
21741;SDS011;11033;47.490;11.116;2023-02-28T03:55:06;28.15;;;15.95;;
21741;SDS011;11033;47.490;11.116;2023-02-28T03:57:37;27.13;;;16.85;;
21741;SDS011;11033;47.490;11.116;2023-02-28T04:00:34;32.97;;;19.38;;
21741;SDS011;11033;47.490;11.116;2023-02-28T04:03:05;35.55;;;21.20;;
21741;SDS011;11033;47.490;11.116;2023-02-28T04:05:31;28.88;;;17.77;;
21741;SDS011;11033;47.490;11.116;2023-02-28T04:08:03;29.15;;;15.13;;
21741;SDS011;11033;47.490;11.116;2023-02-28T04:10:32;30.30;;;18.58;;
21741;SDS011;11033;47.490;11.116;2023-02-28T04:12:58;33.50;;;16.65;;
21741;SDS011;11033;47.490;11.116;2023-02-28T04:15:23;25.37;;;16.40;;
21741;SDS011;11033;47.490;11.116;2023-02-28T04:17:49;34.95;;;20.42;;
21741;SDS011;11033;47.490;11.116;2023-02-28T04:20:15;31.40;;;18.98;;
21741;SDS011;11033;47.490;11.116;2023-02-28T04:22:40;27.05;;;16.13;;
21741;SDS011;11033;47.490;11.116;2023-02-28T04:25:06;29.23;;;16.65;;
21741;SDS011;11033;47.490;11.116;2023-02-28T04:27:32;24.50;;;14.98;;
21741;SDS011;11033;47.490;11.116;2023-02-28T04:29:57;25.50;;;14.52;;
21741;SDS011;11033;47.490;11.116;2023-02-28T04:32:22;21.93;;;13.83;;
21741;SDS011;11033;47.490;11.116;2023-02-28T04:34:48;25.00;;;15.00;;
21741;SDS011;11033;47.490;11.116;2023-02-28T04:37:13;24.30;;;14.57;;
21741;SDS011;11033;47.490;11.116;2023-02-28T04:39:38;28.52;;;16.48;;
21741;SDS011;11033;47.490;11.116;2023-02-28T04:42:04;26.52;;;16.42;;
21741;SDS011;11033;47.490;11.116;2023-02-28T04:44:29;29.35;;;16.17;;
21741;SDS011;11033;47.490;11.116;2023-02-28T04:46:55;25.87;;;17.83;;
21741;SDS011;11033;47.490;11.116;2023-02-28T04:49:20;29.20;;;16.70;;
21741;SDS011;11033;47.490;11.116;2023-02-28T04:51:45;22.47;;;13.27;;
21741;SDS011;11033;47.490;11.116;2023-02-28T04:54:10;26.23;;;14.57;;
21741;SDS011;11033;47.490;11.116;2023-02-28T04:56:36;25.58;;;14.48;;
21741;SDS011;11033;47.490;11.116;2023-02-28T04:59:02;33.97;;;18.25;;
21741;SDS011;11033;47.490;11.116;2023-02-28T05:01:31;35.22;;;20.63;;
21741;SDS011;11033;47.490;11.116;2023-02-28T05:03:59;29.50;;;17.63;;
21741;SDS011;11033;47.490;11.116;2023-02-28T05:06:27;30.10;;;17.85;;
21741;SDS011;11033;47.490;11.116;2023-02-28T05:08:53;23.65;;;13.85;;
21741;SDS011;11033;47.490;11.116;2023-02-28T05:13:49;26.80;;;16.00;;
21741;SDS011;11033;47.490;11.116;2023-02-28T05:16:16;26.92;;;15.50;;
21741;SDS011;11033;47.490;11.116;2023-02-28T05:18:42;35.80;;;20.40;;
21741;SDS011;11033;47.490;11.116;2023-02-28T05:21:27;34.20;;;20.67;;
21741;SDS011;11033;47.490;11.116;2023-02-28T05:24:04;36.33;;;19.90;;
21741;SDS011;11033;47.490;11.116;2023-02-28T05:26:33;31.35;;;18.95;;
21741;SDS011;11033;47.490;11.116;2023-02-28T05:29:03;43.35;;;22.02;;
21741;SDS011;11033;47.490;11.116;2023-02-28T05:31:29;30.58;;;17.33;;
21741;SDS011;11033;47.490;11.116;2023-02-28T05:33:55;35.72;;;21.60;;
21741;SDS011;11033;47.490;11.116;2023-02-28T05:36:20;36.75;;;19.75;;
21741;SDS011;11033;47.490;11.116;2023-02-28T05:38:46;41.13;;;22.40;;
21741;SDS011;11033;47.490;11.116;2023-02-28T05:41:13;52.88;;;25.50;;
21741;SDS011;11033;47.490;11.116;2023-02-28T05:43:38;45.58;;;24.77;;
21741;SDS011;11033;47.490;11.116;2023-02-28T05:46:04;41.37;;;23.20;;
21741;SDS011;11033;47.490;11.116;2023-02-28T05:48:35;35.30;;;19.55;;
21741;SDS011;11033;47.490;11.116;2023-02-28T05:51:02;43.00;;;22.63;;
21741;SDS011;11033;47.490;11.116;2023-02-28T05:53:27;42.15;;;22.70;;
21741;SDS011;11033;47.490;11.116;2023-02-28T05:55:53;36.58;;;20.92;;
21741;SDS011;11033;47.490;11.116;2023-02-28T05:58:18;42.00;;;23.60;;
21741;SDS011;11033;47.490;11.116;2023-02-28T06:00:43;42.77;;;23.07;;
21741;SDS011;11033;47.490;11.116;2023-02-28T06:03:09;50.35;;;26.45;;
21741;SDS011;11033;47.490;11.116;2023-02-28T06:05:34;41.58;;;22.33;;
21741;SDS011;11033;47.490;11.116;2023-02-28T06:07:59;46.70;;;25.60;;
21741;SDS011;11033;47.490;11.116;2023-02-28T06:10:24;47.75;;;24.50;;
21741;SDS011;11033;47.490;11.116;2023-02-28T06:12:50;53.77;;;26.60;;
21741;SDS011;11033;47.490;11.116;2023-02-28T06:15:15;57.23;;;28.67;;
21741;SDS011;11033;47.490;11.116;2023-02-28T06:17:42;51.95;;;26.15;;
21741;SDS011;11033;47.490;11.116;2023-02-28T06:20:08;45.80;;;24.25;;
21741;SDS011;11033;47.490;11.116;2023-02-28T06:22:35;52.20;;;27.00;;
21741;SDS011;11033;47.490;11.116;2023-02-28T06:25:01;102.90;;;32.08;;
21741;SDS011;11033;47.490;11.116;2023-02-28T06:27:27;56.85;;;26.52;;
21741;SDS011;11033;47.490;11.116;2023-02-28T06:29:53;101.28;;;33.63;;
21741;SDS011;11033;47.490;11.116;2023-02-28T06:32:20;97.93;;;31.65;;
21741;SDS011;11033;47.490;11.116;2023-02-28T06:34:45;121.93;;;34.80;;
21741;SDS011;11033;47.490;11.116;2023-02-28T06:37:10;58.15;;;28.77;;
21741;SDS011;11033;47.490;11.116;2023-02-28T06:39:36;68.93;;;29.80;;
21741;SDS011;11033;47.490;11.116;2023-02-28T06:42:01;58.95;;;28.10;;
21741;SDS011;11033;47.490;11.116;2023-02-28T06:44:26;50.90;;;23.95;;
21741;SDS011;11033;47.490;11.116;2023-02-28T06:46:51;54.83;;;25.63;;
21741;SDS011;11033;47.490;11.116;2023-02-28T06:49:17;60.07;;;30.10;;
21741;SDS011;11033;47.490;11.116;2023-02-28T06:51:43;58.38;;;29.77;;
21741;SDS011;11033;47.490;11.116;2023-02-28T06:54:12;59.55;;;30.25;;
21741;SDS011;11033;47.490;11.116;2023-02-28T06:56:38;64.65;;;30.35;;
21741;SDS011;11033;47.490;11.116;2023-02-28T06:59:03;64.13;;;28.73;;
21741;SDS011;11033;47.490;11.116;2023-02-28T07:01:29;55.30;;;29.95;;
21741;SDS011;11033;47.490;11.116;2023-02-28T07:03:57;48.30;;;26.70;;
21741;SDS011;11033;47.490;11.116;2023-02-28T07:06:24;52.50;;;27.35;;
21741;SDS011;11033;47.490;11.116;2023-02-28T07:08:51;53.30;;;29.20;;
21741;SDS011;11033;47.490;11.116;2023-02-28T07:11:17;69.00;;;32.47;;
21741;SDS011;11033;47.490;11.116;2023-02-28T07:13:43;58.78;;;28.35;;
21741;SDS011;11033;47.490;11.116;2023-02-28T07:16:09;50.17;;;27.20;;
21741;SDS011;11033;47.490;11.116;2023-02-28T07:18:36;54.50;;;29.13;;
21741;SDS011;11033;47.490;11.116;2023-02-28T07:21:03;57.90;;;29.48;;
21741;SDS011;11033;47.490;11.116;2023-02-28T07:23:29;56.63;;;29.10;;
21741;SDS011;11033;47.490;11.116;2023-02-28T07:25:55;57.20;;;29.58;;
21741;SDS011;11033;47.490;11.116;2023-02-28T07:28:20;57.65;;;29.05;;
21741;SDS011;11033;47.490;11.116;2023-02-28T07:30:45;49.60;;;25.47;;
21741;SDS011;11033;47.490;11.116;2023-02-28T07:33:11;52.38;;;28.17;;
21741;SDS011;11033;47.490;11.116;2023-02-28T07:35:36;48.87;;;27.07;;
21741;SDS011;11033;47.490;11.116;2023-02-28T07:38:01;47.00;;;25.33;;
21741;SDS011;11033;47.490;11.116;2023-02-28T07:40:27;63.22;;;30.20;;
21741;SDS011;11033;47.490;11.116;2023-02-28T07:42:53;49.55;;;26.05;;
21741;SDS011;11033;47.490;11.116;2023-02-28T07:45:18;51.20;;;27.10;;
21741;SDS011;11033;47.490;11.116;2023-02-28T07:47:44;49.85;;;25.27;;
21741;SDS011;11033;47.490;11.116;2023-02-28T07:50:11;47.22;;;26.52;;
21741;SDS011;11033;47.490;11.116;2023-02-28T07:52:38;47.08;;;26.77;;
21741;SDS011;11033;47.490;11.116;2023-02-28T07:55:04;48.60;;;27.05;;
21741;SDS011;11033;47.490;11.116;2023-02-28T07:57:31;48.40;;;27.83;;
21741;SDS011;11033;47.490;11.116;2023-02-28T07:59:56;49.08;;;26.50;;
21741;SDS011;11033;47.490;11.116;2023-02-28T08:02:22;43.17;;;24.20;;
21741;SDS011;11033;47.490;11.116;2023-02-28T08:04:47;43.07;;;23.80;;
21741;SDS011;11033;47.490;11.116;2023-02-28T08:07:13;44.83;;;26.13;;
21741;SDS011;11033;47.490;11.116;2023-02-28T08:09:39;47.28;;;25.83;;
21741;SDS011;11033;47.490;11.116;2023-02-28T08:12:05;46.15;;;26.58;;
21741;SDS011;11033;47.490;11.116;2023-02-28T08:14:31;49.53;;;26.83;;
21741;SDS011;11033;47.490;11.116;2023-02-28T08:16:56;40.67;;;23.42;;
21741;SDS011;11033;47.490;11.116;2023-02-28T08:19:21;37.45;;;22.77;;
21741;SDS011;11033;47.490;11.116;2023-02-28T08:21:47;44.00;;;24.83;;
21741;SDS011;11033;47.490;11.116;2023-02-28T08:24:12;39.77;;;24.00;;
21741;SDS011;11033;47.490;11.116;2023-02-28T08:26:37;39.37;;;23.33;;
21741;SDS011;11033;47.490;11.116;2023-02-28T08:29:03;45.07;;;25.13;;
21741;SDS011;11033;47.490;11.116;2023-02-28T08:31:28;40.13;;;23.92;;
21741;SDS011;11033;47.490;11.116;2023-02-28T08:33:53;43.38;;;23.65;;
21741;SDS011;11033;47.490;11.116;2023-02-28T08:36:21;44.90;;;23.13;;
21741;SDS011;11033;47.490;11.116;2023-02-28T08:38:47;40.97;;;24.70;;
21741;SDS011;11033;47.490;11.116;2023-02-28T08:41:12;41.67;;;24.27;;
21741;SDS011;11033;47.490;11.116;2023-02-28T08:43:38;39.10;;;22.75;;
21741;SDS011;11033;47.490;11.116;2023-02-28T08:46:04;43.65;;;24.52;;
21741;SDS011;11033;47.490;11.116;2023-02-28T08:48:31;42.53;;;22.55;;
21741;SDS011;11033;47.490;11.116;2023-02-28T08:53:23;43.67;;;24.52;;
21741;SDS011;11033;47.490;11.116;2023-02-28T08:55:55;43.70;;;23.77;;
21741;SDS011;11033;47.490;11.116;2023-02-28T08:58:25;39.70;;;23.33;;
21741;SDS011;11033;47.490;11.116;2023-02-28T09:00:50;38.47;;;22.67;;
21741;SDS011;11033;47.490;11.116;2023-02-28T09:03:16;35.58;;;22.05;;
21741;SDS011;11033;47.490;11.116;2023-02-28T09:05:50;37.25;;;22.38;;
21741;SDS011;11033;47.490;11.116;2023-02-28T09:08:20;42.15;;;24.80;;
21741;SDS011;11033;47.490;11.116;2023-02-28T09:10:45;41.53;;;24.57;;
21741;SDS011;11033;47.490;11.116;2023-02-28T09:13:11;37.90;;;20.97;;
21741;SDS011;11033;47.490;11.116;2023-02-28T09:15:39;36.77;;;22.93;;
21741;SDS011;11033;47.490;11.116;2023-02-28T09:18:04;43.17;;;22.55;;
21741;SDS011;11033;47.490;11.116;2023-02-28T09:20:30;37.63;;;22.23;;
21741;SDS011;11033;47.490;11.116;2023-02-28T09:22:55;36.65;;;20.83;;
21741;SDS011;11033;47.490;11.116;2023-02-28T09:25:20;36.37;;;22.30;;
21741;SDS011;11033;47.490;11.116;2023-02-28T09:27:46;36.53;;;22.73;;
21741;SDS011;11033;47.490;11.116;2023-02-28T09:30:11;35.00;;;20.10;;
21741;SDS011;11033;47.490;11.116;2023-02-28T09:32:37;39.33;;;21.50;;
21741;SDS011;11033;47.490;11.116;2023-02-28T09:35:02;30.67;;;18.95;;
21741;SDS011;11033;47.490;11.116;2023-02-28T09:37:28;30.10;;;18.63;;
21741;SDS011;11033;47.490;11.116;2023-02-28T09:39:54;29.92;;;18.48;;
21741;SDS011;11033;47.490;11.116;2023-02-28T09:42:29;28.38;;;19.25;;
21741;SDS011;11033;47.490;11.116;2023-02-28T09:44:58;31.30;;;19.30;;
21741;SDS011;11033;47.490;11.116;2023-02-28T09:47:27;32.22;;;19.90;;
21741;SDS011;11033;47.490;11.116;2023-02-28T09:49:58;31.33;;;20.60;;
21741;SDS011;11033;47.490;11.116;2023-02-28T09:52:32;26.23;;;17.92;;
21741;SDS011;11033;47.490;11.116;2023-02-28T09:55:19;26.70;;;17.52;;
21741;SDS011;11033;47.490;11.116;2023-02-28T09:57:50;29.55;;;17.90;;
21741;SDS011;11033;47.490;11.116;2023-02-28T10:02:52;21.60;;;16.10;;
21741;SDS011;11033;47.490;11.116;2023-02-28T10:05:49;22.30;;;15.25;;
21741;SDS011;11033;47.490;11.116;2023-02-28T10:08:28;22.77;;;15.45;;
21741;SDS011;11033;47.490;11.116;2023-02-28T10:10:58;20.67;;;13.60;;
21741;SDS011;11033;47.490;11.116;2023-02-28T10:13:28;15.20;;;12.13;;
21741;SDS011;11033;47.490;11.116;2023-02-28T10:19:05;21.73;;;14.93;;
21741;SDS011;11033;47.490;11.116;2023-02-28T10:21:42;22.10;;;14.73;;
21741;SDS011;11033;47.490;11.116;2023-02-28T10:24:19;19.30;;;15.02;;
21741;SDS011;11033;47.490;11.116;2023-02-28T10:26:48;22.42;;;15.30;;
21741;SDS011;11033;47.490;11.116;2023-02-28T10:29:13;22.85;;;15.60;;
21741;SDS011;11033;47.490;11.116;2023-02-28T10:31:39;21.73;;;16.55;;
21741;SDS011;11033;47.490;11.116;2023-02-28T10:34:05;25.40;;;16.38;;
21741;SDS011;11033;47.490;11.116;2023-02-28T10:36:32;23.85;;;15.77;;
21741;SDS011;11033;47.490;11.116;2023-02-28T10:38:57;24.03;;;17.27;;
21741;SDS011;11033;47.490;11.116;2023-02-28T10:41:31;20.50;;;15.70;;
21741;SDS011;11033;47.490;11.116;2023-02-28T10:44:14;23.95;;;17.05;;
21741;SDS011;11033;47.490;11.116;2023-02-28T10:46:45;22.10;;;15.73;;
21741;SDS011;11033;47.490;11.116;2023-02-28T10:49:21;24.40;;;15.95;;
21741;SDS011;11033;47.490;11.116;2023-02-28T10:51:49;25.60;;;17.80;;
21741;SDS011;11033;47.490;11.116;2023-02-28T10:54:19;25.67;;;17.77;;
21741;SDS011;11033;47.490;11.116;2023-02-28T10:57:05;24.63;;;18.73;;
21741;SDS011;11033;47.490;11.116;2023-02-28T10:59:32;24.25;;;17.30;;
21741;SDS011;11033;47.490;11.116;2023-02-28T11:01:57;22.08;;;17.02;;
21741;SDS011;11033;47.490;11.116;2023-02-28T11:07:01;21.77;;;17.60;;
21741;SDS011;11033;47.490;11.116;2023-02-28T11:09:39;25.08;;;18.10;;
21741;SDS011;11033;47.490;11.116;2023-02-28T11:12:06;20.38;;;16.75;;
21741;SDS011;11033;47.490;11.116;2023-02-28T11:14:47;23.73;;;18.08;;
21741;SDS011;11033;47.490;11.116;2023-02-28T11:17:22;23.25;;;18.48;;
21741;SDS011;11033;47.490;11.116;2023-02-28T11:19:51;19.90;;;17.30;;
21741;SDS011;11033;47.490;11.116;2023-02-28T11:22:21;20.60;;;16.85;;
21741;SDS011;11033;47.490;11.116;2023-02-28T11:24:53;19.77;;;16.83;;
21741;SDS011;11033;47.490;11.116;2023-02-28T11:27:25;24.20;;;18.10;;
21741;SDS011;11033;47.490;11.116;2023-02-28T11:29:50;22.35;;;18.15;;
21741;SDS011;11033;47.490;11.116;2023-02-28T11:32:19;21.20;;;17.67;;
21741;SDS011;11033;47.490;11.116;2023-02-28T11:34:46;21.33;;;18.10;;
21741;SDS011;11033;47.490;11.116;2023-02-28T11:37:28;23.17;;;19.45;;
21741;SDS011;11033;47.490;11.116;2023-02-28T11:39:55;22.60;;;17.77;;
21741;SDS011;11033;47.490;11.116;2023-02-28T11:42:39;20.95;;;18.45;;
21741;SDS011;11033;47.490;11.116;2023-02-28T11:47:58;24.95;;;18.17;;
21741;SDS011;11033;47.490;11.116;2023-02-28T11:50:41;21.73;;;18.05;;
21741;SDS011;11033;47.490;11.116;2023-02-28T11:53:13;28.20;;;20.20;;
21741;SDS011;11033;47.490;11.116;2023-02-28T11:55:59;22.88;;;19.98;;
21741;SDS011;11033;47.490;11.116;2023-02-28T12:01:15;24.95;;;19.60;;
21741;SDS011;11033;47.490;11.116;2023-02-28T12:09:52;24.65;;;18.92;;
21741;SDS011;11033;47.490;11.116;2023-02-28T12:23:33;25.65;;;19.20;;
21741;SDS011;11033;47.490;11.116;2023-02-28T12:28:59;22.70;;;18.15;;
21741;SDS011;11033;47.490;11.116;2023-02-28T12:31:33;26.85;;;19.17;;
21741;SDS011;11033;47.490;11.116;2023-02-28T12:34:03;28.25;;;20.67;;
21741;SDS011;11033;47.490;11.116;2023-02-28T12:36:34;26.00;;;21.08;;
21741;SDS011;11033;47.490;11.116;2023-02-28T12:39:08;26.13;;;19.98;;
21741;SDS011;11033;47.490;11.116;2023-02-28T12:41:47;26.95;;;21.30;;
21741;SDS011;11033;47.490;11.116;2023-02-28T12:46:42;28.43;;;20.50;;
21741;SDS011;11033;47.490;11.116;2023-02-28T12:49:36;25.00;;;20.05;;
21741;SDS011;11033;47.490;11.116;2023-02-28T12:52:04;28.33;;;21.88;;
21741;SDS011;11033;47.490;11.116;2023-02-28T12:54:42;23.55;;;18.88;;
21741;SDS011;11033;47.490;11.116;2023-02-28T13:00:16;28.55;;;20.88;;
21741;SDS011;11033;47.490;11.116;2023-02-28T13:02:49;27.92;;;20.27;;
21741;SDS011;11033;47.490;11.116;2023-02-28T13:11:03;31.10;;;20.65;;
21741;SDS011;11033;47.490;11.116;2023-02-28T13:13:29;34.55;;;22.30;;
21741;SDS011;11033;47.490;11.116;2023-02-28T13:16:08;34.60;;;23.48;;
21741;SDS011;11033;47.490;11.116;2023-02-28T13:18:36;34.03;;;20.80;;
21741;SDS011;11033;47.490;11.116;2023-02-28T13:21:04;31.75;;;21.85;;
21741;SDS011;11033;47.490;11.116;2023-02-28T13:23:40;31.52;;;21.40;;
21741;SDS011;11033;47.490;11.116;2023-02-28T13:26:08;32.85;;;22.08;;
21741;SDS011;11033;47.490;11.116;2023-02-28T13:31:14;32.78;;;22.35;;
21741;SDS011;11033;47.490;11.116;2023-02-28T13:44:12;37.58;;;24.17;;
21741;SDS011;11033;47.490;11.116;2023-02-28T13:49:18;36.35;;;21.80;;
21741;SDS011;11033;47.490;11.116;2023-02-28T13:51:46;34.20;;;22.20;;
21741;SDS011;11033;47.490;11.116;2023-02-28T13:54:16;33.80;;;21.95;;
21741;SDS011;11033;47.490;11.116;2023-02-28T13:56:48;39.75;;;23.52;;
21741;SDS011;11033;47.490;11.116;2023-02-28T14:02:25;38.20;;;23.10;;
21741;SDS011;11033;47.490;11.116;2023-02-28T14:07:47;40.70;;;24.92;;
21741;SDS011;11033;47.490;11.116;2023-02-28T14:10:21;38.92;;;24.60;;
21741;SDS011;11033;47.490;11.116;2023-02-28T14:12:57;40.75;;;25.58;;
21741;SDS011;11033;47.490;11.116;2023-02-28T14:18:20;42.97;;;25.80;;
21741;SDS011;11033;47.490;11.116;2023-02-28T14:20:47;39.70;;;25.17;;
21741;SDS011;11033;47.490;11.116;2023-02-28T14:31:41;43.40;;;25.15;;
21741;SDS011;11033;47.490;11.116;2023-02-28T14:37:13;40.58;;;23.92;;
21741;SDS011;11033;47.490;11.116;2023-02-28T14:39:41;38.70;;;22.45;;
21741;SDS011;11033;47.490;11.116;2023-02-28T14:42:26;47.47;;;27.08;;
21741;SDS011;11033;47.490;11.116;2023-02-28T14:45:03;45.08;;;25.73;;
21741;SDS011;11033;47.490;11.116;2023-02-28T14:47:33;39.67;;;24.08;;
21741;SDS011;11033;47.490;11.116;2023-02-28T14:50:00;41.75;;;24.65;;
21741;SDS011;11033;47.490;11.116;2023-02-28T14:52:29;46.25;;;24.95;;
21741;SDS011;11033;47.490;11.116;2023-02-28T14:55:04;42.78;;;24.90;;
21741;SDS011;11033;47.490;11.116;2023-02-28T14:57:34;44.13;;;27.08;;
21741;SDS011;11033;47.490;11.116;2023-02-28T15:02:37;46.10;;;25.25;;
21741;SDS011;11033;47.490;11.116;2023-02-28T15:07:42;50.33;;;30.67;;
21741;SDS011;11033;47.490;11.116;2023-02-28T15:12:40;43.03;;;26.00;;
21741;SDS011;11033;47.490;11.116;2023-02-28T15:15:15;42.28;;;25.65;;
21741;SDS011;11033;47.490;11.116;2023-02-28T15:17:41;48.72;;;29.65;;
21741;SDS011;11033;47.490;11.116;2023-02-28T15:20:11;44.70;;;27.70;;
21741;SDS011;11033;47.490;11.116;2023-02-28T15:22:38;48.13;;;27.73;;
21741;SDS011;11033;47.490;11.116;2023-02-28T15:25:04;48.95;;;27.77;;
21741;SDS011;11033;47.490;11.116;2023-02-28T15:27:33;48.50;;;26.95;;
21741;SDS011;11033;47.490;11.116;2023-02-28T15:30:08;46.00;;;27.33;;
21741;SDS011;11033;47.490;11.116;2023-02-28T15:32:39;52.10;;;28.70;;
21741;SDS011;11033;47.490;11.116;2023-02-28T15:43:03;50.03;;;29.20;;
21741;SDS011;11033;47.490;11.116;2023-02-28T15:45:35;50.53;;;31.30;;
21741;SDS011;11033;47.490;11.116;2023-02-28T15:48:06;51.05;;;29.58;;
21741;SDS011;11033;47.490;11.116;2023-02-28T15:50:40;51.63;;;29.48;;
21741;SDS011;11033;47.490;11.116;2023-02-28T15:53:11;47.33;;;27.33;;
21741;SDS011;11033;47.490;11.116;2023-02-28T15:55:38;49.67;;;29.27;;
21741;SDS011;11033;47.490;11.116;2023-02-28T15:58:04;50.17;;;29.85;;
21741;SDS011;11033;47.490;11.116;2023-02-28T16:00:31;54.45;;;32.75;;
21741;SDS011;11033;47.490;11.116;2023-02-28T16:03:00;48.38;;;28.65;;
21741;SDS011;11033;47.490;11.116;2023-02-28T16:05:26;51.30;;;29.58;;
21741;SDS011;11033;47.490;11.116;2023-02-28T16:07:56;49.97;;;30.05;;
21741;SDS011;11033;47.490;11.116;2023-02-28T16:10:40;52.03;;;31.15;;
21741;SDS011;11033;47.490;11.116;2023-02-28T16:13:06;48.20;;;30.85;;
21741;SDS011;11033;47.490;11.116;2023-02-28T16:15:37;54.58;;;31.52;;
21741;SDS011;11033;47.490;11.116;2023-02-28T16:18:07;54.67;;;33.13;;
21741;SDS011;11033;47.490;11.116;2023-02-28T16:20:35;55.97;;;32.92;;
21741;SDS011;11033;47.490;11.116;2023-02-28T16:23:00;53.43;;;31.73;;
21741;SDS011;11033;47.490;11.116;2023-02-28T16:25:48;56.80;;;33.03;;
21741;SDS011;11033;47.490;11.116;2023-02-28T16:28:25;67.18;;;37.55;;
21741;SDS011;11033;47.490;11.116;2023-02-28T16:30:56;61.75;;;34.67;;